sensor_id;sensor_type;location;lat;lon;timestamp;P1;durP1;ratioP1;P2;durP2;ratioP2
22949;SDS011;11641;51.018;4.474;2022-10-13T00:00:26;17.10;;;8.75;;
22949;SDS011;11641;51.018;4.474;2022-10-13T00:02:51;18.85;;;8.25;;
22949;SDS011;11641;51.018;4.474;2022-10-13T00:05:19;14.55;;;8.18;;
22949;SDS011;11641;51.018;4.474;2022-10-13T00:07:45;17.00;;;8.20;;
22949;SDS011;11641;51.018;4.474;2022-10-13T00:10:12;14.57;;;7.97;;
22949;SDS011;11641;51.018;4.474;2022-10-13T00:12:39;13.98;;;8.05;;
22949;SDS011;11641;51.018;4.474;2022-10-13T00:15:05;12.70;;;7.45;;
22949;SDS011;11641;51.018;4.474;2022-10-13T00:17:34;14.57;;;8.02;;
22949;SDS011;11641;51.018;4.474;2022-10-13T00:20:02;18.20;;;8.15;;
22949;SDS011;11641;51.018;4.474;2022-10-13T00:22:32;11.90;;;7.50;;
22949;SDS011;11641;51.018;4.474;2022-10-13T00:24:57;15.63;;;7.50;;
22949;SDS011;11641;51.018;4.474;2022-10-13T00:27:23;17.35;;;8.20;;
22949;SDS011;11641;51.018;4.474;2022-10-13T00:29:53;14.45;;;7.10;;
22949;SDS011;11641;51.018;4.474;2022-10-13T00:32:22;13.90;;;7.72;;
22949;SDS011;11641;51.018;4.474;2022-10-13T00:34:47;12.98;;;6.93;;
22949;SDS011;11641;51.018;4.474;2022-10-13T00:37:13;10.30;;;6.60;;
22949;SDS011;11641;51.018;4.474;2022-10-13T00:39:39;13.25;;;6.82;;
22949;SDS011;11641;51.018;4.474;2022-10-13T00:42:09;10.75;;;6.68;;
22949;SDS011;11641;51.018;4.474;2022-10-13T00:44:58;16.10;;;7.10;;
22949;SDS011;11641;51.018;4.474;2022-10-13T00:47:57;13.57;;;6.10;;
22949;SDS011;11641;51.018;4.474;2022-10-13T00:50:29;12.35;;;6.32;;
22949;SDS011;11641;51.018;4.474;2022-10-13T00:55:27;16.88;;;7.13;;
22949;SDS011;11641;51.018;4.474;2022-10-13T00:57:55;11.85;;;7.22;;
22949;SDS011;11641;51.018;4.474;2022-10-13T01:00:24;11.50;;;6.78;;
22949;SDS011;11641;51.018;4.474;2022-10-13T01:02:50;12.75;;;6.13;;
22949;SDS011;11641;51.018;4.474;2022-10-13T01:05:17;15.68;;;6.85;;
22949;SDS011;11641;51.018;4.474;2022-10-13T01:07:46;13.45;;;6.53;;
22949;SDS011;11641;51.018;4.474;2022-10-13T01:10:16;14.40;;;6.75;;
22949;SDS011;11641;51.018;4.474;2022-10-13T01:15:33;12.10;;;5.75;;
22949;SDS011;11641;51.018;4.474;2022-10-13T01:20:50;15.55;;;6.78;;
22949;SDS011;11641;51.018;4.474;2022-10-13T01:31:36;16.08;;;7.68;;
22949;SDS011;11641;51.018;4.474;2022-10-13T01:34:09;14.35;;;7.70;;
22949;SDS011;11641;51.018;4.474;2022-10-13T01:36:55;12.65;;;7.20;;
22949;SDS011;11641;51.018;4.474;2022-10-13T01:42:28;13.43;;;7.50;;
22949;SDS011;11641;51.018;4.474;2022-10-13T01:45:00;16.42;;;8.10;;
22949;SDS011;11641;51.018;4.474;2022-10-13T01:47:30;11.38;;;6.85;;
22949;SDS011;11641;51.018;4.474;2022-10-13T01:49:59;13.10;;;7.20;;
22949;SDS011;11641;51.018;4.474;2022-10-13T01:52:30;12.73;;;7.80;;
22949;SDS011;11641;51.018;4.474;2022-10-13T01:55:03;13.57;;;7.15;;
22949;SDS011;11641;51.018;4.474;2022-10-13T02:00:03;16.95;;;7.40;;
22949;SDS011;11641;51.018;4.474;2022-10-13T02:08:17;14.40;;;7.38;;
22949;SDS011;11641;51.018;4.474;2022-10-13T02:11:13;18.50;;;7.45;;
22949;SDS011;11641;51.018;4.474;2022-10-13T02:13:49;13.63;;;8.63;;
22949;SDS011;11641;51.018;4.474;2022-10-13T02:18:53;14.38;;;8.00;;
22949;SDS011;11641;51.018;4.474;2022-10-13T02:21:21;14.45;;;8.23;;
22949;SDS011;11641;51.018;4.474;2022-10-13T02:23:47;19.75;;;8.30;;
22949;SDS011;11641;51.018;4.474;2022-10-13T02:26:12;17.27;;;7.22;;
22949;SDS011;11641;51.018;4.474;2022-10-13T02:28:40;18.38;;;8.27;;
22949;SDS011;11641;51.018;4.474;2022-10-13T02:31:07;17.75;;;8.15;;
22949;SDS011;11641;51.018;4.474;2022-10-13T02:33:33;17.48;;;8.48;;
22949;SDS011;11641;51.018;4.474;2022-10-13T02:35:58;16.02;;;8.45;;
22949;SDS011;11641;51.018;4.474;2022-10-13T02:38:30;19.35;;;8.80;;
22949;SDS011;11641;51.018;4.474;2022-10-13T02:40:59;13.85;;;8.35;;
22949;SDS011;11641;51.018;4.474;2022-10-13T02:43:27;16.38;;;8.57;;
22949;SDS011;11641;51.018;4.474;2022-10-13T02:45:54;17.38;;;8.60;;
22949;SDS011;11641;51.018;4.474;2022-10-13T02:48:19;17.77;;;8.52;;
22949;SDS011;11641;51.018;4.474;2022-10-13T02:50:45;21.25;;;8.80;;
22949;SDS011;11641;51.018;4.474;2022-10-13T02:53:11;18.17;;;8.30;;
22949;SDS011;11641;51.018;4.474;2022-10-13T02:55:40;18.25;;;9.45;;
22949;SDS011;11641;51.018;4.474;2022-10-13T02:58:06;14.98;;;8.15;;
22949;SDS011;11641;51.018;4.474;2022-10-13T03:00:34;16.48;;;8.82;;
22949;SDS011;11641;51.018;4.474;2022-10-13T03:03:03;23.92;;;9.13;;
22949;SDS011;11641;51.018;4.474;2022-10-13T03:05:32;17.55;;;8.82;;
22949;SDS011;11641;51.018;4.474;2022-10-13T03:07:57;19.80;;;10.05;;
22949;SDS011;11641;51.018;4.474;2022-10-13T03:10:23;18.15;;;9.55;;
22949;SDS011;11641;51.018;4.474;2022-10-13T03:12:50;18.27;;;9.57;;
22949;SDS011;11641;51.018;4.474;2022-10-13T03:15:18;19.25;;;10.32;;
22949;SDS011;11641;51.018;4.474;2022-10-13T03:17:43;23.50;;;10.18;;
22949;SDS011;11641;51.018;4.474;2022-10-13T03:20:12;26.45;;;10.88;;
22949;SDS011;11641;51.018;4.474;2022-10-13T03:22:40;21.63;;;10.27;;
22949;SDS011;11641;51.018;4.474;2022-10-13T03:25:06;18.67;;;11.27;;
22949;SDS011;11641;51.018;4.474;2022-10-13T03:27:34;18.63;;;10.70;;
22949;SDS011;11641;51.018;4.474;2022-10-13T03:30:00;27.52;;;12.15;;
22949;SDS011;11641;51.018;4.474;2022-10-13T03:32:29;20.42;;;11.07;;
22949;SDS011;11641;51.018;4.474;2022-10-13T03:34:55;23.60;;;11.68;;
22949;SDS011;11641;51.018;4.474;2022-10-13T03:37:21;24.83;;;11.93;;
22949;SDS011;11641;51.018;4.474;2022-10-13T03:39:47;22.58;;;12.20;;
22949;SDS011;11641;51.018;4.474;2022-10-13T03:42:12;22.30;;;12.25;;
22949;SDS011;11641;51.018;4.474;2022-10-13T03:44:38;20.83;;;11.82;;
22949;SDS011;11641;51.018;4.474;2022-10-13T03:47:04;20.98;;;12.15;;
22949;SDS011;11641;51.018;4.474;2022-10-13T03:49:30;20.63;;;12.07;;
22949;SDS011;11641;51.018;4.474;2022-10-13T03:52:01;23.75;;;12.23;;
22949;SDS011;11641;51.018;4.474;2022-10-13T03:54:27;22.35;;;13.30;;
22949;SDS011;11641;51.018;4.474;2022-10-13T03:56:57;26.13;;;12.77;;
22949;SDS011;11641;51.018;4.474;2022-10-13T03:59:24;25.20;;;12.73;;
22949;SDS011;11641;51.018;4.474;2022-10-13T04:01:52;27.95;;;12.93;;
22949;SDS011;11641;51.018;4.474;2022-10-13T04:04:20;21.48;;;12.52;;
22949;SDS011;11641;51.018;4.474;2022-10-13T04:06:50;25.52;;;13.30;;
22949;SDS011;11641;51.018;4.474;2022-10-13T04:09:18;22.95;;;12.70;;
22949;SDS011;11641;51.018;4.474;2022-10-13T04:11:44;22.92;;;12.57;;
22949;SDS011;11641;51.018;4.474;2022-10-13T04:14:12;22.40;;;13.18;;
22949;SDS011;11641;51.018;4.474;2022-10-13T04:16:38;23.30;;;13.00;;
22949;SDS011;11641;51.018;4.474;2022-10-13T04:19:05;26.00;;;13.32;;
22949;SDS011;11641;51.018;4.474;2022-10-13T04:21:31;23.40;;;12.70;;
22949;SDS011;11641;51.018;4.474;2022-10-13T04:23:59;26.70;;;13.73;;
22949;SDS011;11641;51.018;4.474;2022-10-13T04:26:31;26.08;;;12.63;;
22949;SDS011;11641;51.018;4.474;2022-10-13T04:28:58;24.38;;;12.48;;
22949;SDS011;11641;51.018;4.474;2022-10-13T04:31:27;22.60;;;12.57;;
22949;SDS011;11641;51.018;4.474;2022-10-13T04:33:53;23.60;;;12.05;;
22949;SDS011;11641;51.018;4.474;2022-10-13T04:36:22;25.63;;;13.07;;
22949;SDS011;11641;51.018;4.474;2022-10-13T04:38:51;24.00;;;12.93;;
22949;SDS011;11641;51.018;4.474;2022-10-13T04:41:18;22.67;;;13.02;;
22949;SDS011;11641;51.018;4.474;2022-10-13T04:43:50;29.80;;;12.50;;
22949;SDS011;11641;51.018;4.474;2022-10-13T04:46:23;24.75;;;12.57;;
22949;SDS011;11641;51.018;4.474;2022-10-13T04:48:51;22.27;;;12.13;;
22949;SDS011;11641;51.018;4.474;2022-10-13T04:51:18;23.52;;;11.93;;
22949;SDS011;11641;51.018;4.474;2022-10-13T04:53:48;25.30;;;12.77;;
22949;SDS011;11641;51.018;4.474;2022-10-13T04:56:18;20.20;;;12.43;;
22949;SDS011;11641;51.018;4.474;2022-10-13T04:58:44;24.80;;;12.35;;
22949;SDS011;11641;51.018;4.474;2022-10-13T05:01:15;26.17;;;11.27;;
22949;SDS011;11641;51.018;4.474;2022-10-13T05:03:44;23.67;;;12.48;;
22949;SDS011;11641;51.018;4.474;2022-10-13T05:06:14;28.35;;;12.55;;
22949;SDS011;11641;51.018;4.474;2022-10-13T05:08:52;29.42;;;11.63;;
22949;SDS011;11641;51.018;4.474;2022-10-13T05:11:18;21.52;;;11.60;;
22949;SDS011;11641;51.018;4.474;2022-10-13T05:13:47;22.98;;;11.25;;
22949;SDS011;11641;51.018;4.474;2022-10-13T05:16:13;26.75;;;10.90;;
22949;SDS011;11641;51.018;4.474;2022-10-13T05:18:44;23.52;;;11.45;;
22949;SDS011;11641;51.018;4.474;2022-10-13T05:21:17;22.13;;;11.30;;
22949;SDS011;11641;51.018;4.474;2022-10-13T05:23:47;24.02;;;10.73;;
22949;SDS011;11641;51.018;4.474;2022-10-13T05:26:15;23.42;;;10.88;;
22949;SDS011;11641;51.018;4.474;2022-10-13T05:28:42;21.40;;;11.13;;
22949;SDS011;11641;51.018;4.474;2022-10-13T05:33:39;24.88;;;11.75;;
22949;SDS011;11641;51.018;4.474;2022-10-13T05:36:07;23.23;;;11.45;;
22949;SDS011;11641;51.018;4.474;2022-10-13T05:38:35;22.98;;;11.15;;
22949;SDS011;11641;51.018;4.474;2022-10-13T05:41:04;26.02;;;11.90;;
22949;SDS011;11641;51.018;4.474;2022-10-13T05:43:31;22.45;;;11.18;;
22949;SDS011;11641;51.018;4.474;2022-10-13T05:46:00;29.13;;;11.60;;
22949;SDS011;11641;51.018;4.474;2022-10-13T05:48:30;22.35;;;11.57;;
22949;SDS011;11641;51.018;4.474;2022-10-13T05:51:00;27.70;;;11.18;;
22949;SDS011;11641;51.018;4.474;2022-10-13T05:53:30;24.55;;;11.30;;
22949;SDS011;11641;51.018;4.474;2022-10-13T05:56:00;21.30;;;11.57;;
22949;SDS011;11641;51.018;4.474;2022-10-13T05:58:34;24.63;;;11.52;;
22949;SDS011;11641;51.018;4.474;2022-10-13T06:03:32;25.38;;;11.57;;
22949;SDS011;11641;51.018;4.474;2022-10-13T06:05:59;26.67;;;10.70;;
22949;SDS011;11641;51.018;4.474;2022-10-13T06:08:24;24.83;;;12.68;;
22949;SDS011;11641;51.018;4.474;2022-10-13T06:10:51;22.48;;;10.38;;
22949;SDS011;11641;51.018;4.474;2022-10-13T06:13:16;25.70;;;11.25;;
22949;SDS011;11641;51.018;4.474;2022-10-13T06:15:44;25.80;;;12.07;;
22949;SDS011;11641;51.018;4.474;2022-10-13T06:18:10;23.67;;;11.30;;
22949;SDS011;11641;51.018;4.474;2022-10-13T06:20:36;27.58;;;10.90;;
22949;SDS011;11641;51.018;4.474;2022-10-13T06:23:04;21.55;;;11.13;;
22949;SDS011;11641;51.018;4.474;2022-10-13T06:25:32;22.15;;;10.93;;
22949;SDS011;11641;51.018;4.474;2022-10-13T06:27:57;23.02;;;11.82;;
22949;SDS011;11641;51.018;4.474;2022-10-13T06:30:24;23.73;;;10.70;;
22949;SDS011;11641;51.018;4.474;2022-10-13T06:32:53;21.85;;;10.13;;
22949;SDS011;11641;51.018;4.474;2022-10-13T06:35:20;26.15;;;10.25;;
22949;SDS011;11641;51.018;4.474;2022-10-13T06:37:47;25.92;;;10.57;;
22949;SDS011;11641;51.018;4.474;2022-10-13T06:40:14;24.17;;;10.45;;
22949;SDS011;11641;51.018;4.474;2022-10-13T06:42:40;21.55;;;10.70;;
22949;SDS011;11641;51.018;4.474;2022-10-13T06:45:08;20.55;;;10.93;;
22949;SDS011;11641;51.018;4.474;2022-10-13T06:47:34;24.90;;;9.90;;
22949;SDS011;11641;51.018;4.474;2022-10-13T06:50:00;17.70;;;10.10;;
22949;SDS011;11641;51.018;4.474;2022-10-13T06:52:26;26.63;;;10.30;;
22949;SDS011;11641;51.018;4.474;2022-10-13T06:54:52;21.85;;;10.80;;
22949;SDS011;11641;51.018;4.474;2022-10-13T06:57:18;21.70;;;10.85;;
22949;SDS011;11641;51.018;4.474;2022-10-13T06:59:48;20.77;;;10.02;;
22949;SDS011;11641;51.018;4.474;2022-10-13T07:02:14;22.02;;;10.25;;
22949;SDS011;11641;51.018;4.474;2022-10-13T07:04:42;21.88;;;10.50;;
22949;SDS011;11641;51.018;4.474;2022-10-13T07:07:08;23.25;;;10.48;;
22949;SDS011;11641;51.018;4.474;2022-10-13T07:09:36;22.52;;;10.90;;
22949;SDS011;11641;51.018;4.474;2022-10-13T07:12:01;29.25;;;11.73;;
22949;SDS011;11641;51.018;4.474;2022-10-13T07:14:27;19.58;;;10.63;;
22949;SDS011;11641;51.018;4.474;2022-10-13T07:16:56;23.58;;;11.32;;
22949;SDS011;11641;51.018;4.474;2022-10-13T07:19:22;26.13;;;10.73;;
22949;SDS011;11641;51.018;4.474;2022-10-13T07:21:50;21.42;;;10.25;;
22949;SDS011;11641;51.018;4.474;2022-10-13T07:24:16;19.88;;;10.10;;
22949;SDS011;11641;51.018;4.474;2022-10-13T07:26:42;24.83;;;10.52;;
22949;SDS011;11641;51.018;4.474;2022-10-13T07:29:12;19.30;;;9.55;;
22949;SDS011;11641;51.018;4.474;2022-10-13T07:31:39;22.10;;;9.25;;
22949;SDS011;11641;51.018;4.474;2022-10-13T07:34:07;25.80;;;10.77;;
22949;SDS011;11641;51.018;4.474;2022-10-13T07:36:32;28.52;;;10.10;;
22949;SDS011;11641;51.018;4.474;2022-10-13T07:39:04;25.08;;;9.40;;
22949;SDS011;11641;51.018;4.474;2022-10-13T07:41:30;23.58;;;9.68;;
22949;SDS011;11641;51.018;4.474;2022-10-13T07:43:56;24.27;;;9.82;;
22949;SDS011;11641;51.018;4.474;2022-10-13T07:46:22;37.25;;;10.75;;
22949;SDS011;11641;51.018;4.474;2022-10-13T07:48:50;23.13;;;10.55;;
22949;SDS011;11641;51.018;4.474;2022-10-13T07:51:19;26.27;;;10.05;;
22949;SDS011;11641;51.018;4.474;2022-10-13T07:53:47;19.05;;;10.02;;
22949;SDS011;11641;51.018;4.474;2022-10-13T07:56:13;17.88;;;9.00;;
22949;SDS011;11641;51.018;4.474;2022-10-13T07:58:44;28.75;;;10.38;;
22949;SDS011;11641;51.018;4.474;2022-10-13T08:01:13;21.33;;;9.30;;
22949;SDS011;11641;51.018;4.474;2022-10-13T08:03:40;27.60;;;9.77;;
22949;SDS011;11641;51.018;4.474;2022-10-13T08:06:07;23.80;;;9.32;;
22949;SDS011;11641;51.018;4.474;2022-10-13T08:08:33;24.17;;;8.85;;
22949;SDS011;11641;51.018;4.474;2022-10-13T08:11:03;22.65;;;8.85;;
22949;SDS011;11641;51.018;4.474;2022-10-13T08:13:41;24.38;;;8.60;;
22949;SDS011;11641;51.018;4.474;2022-10-13T08:16:10;17.73;;;8.27;;
22949;SDS011;11641;51.018;4.474;2022-10-13T08:18:36;23.08;;;8.80;;
22949;SDS011;11641;51.018;4.474;2022-10-13T08:21:02;20.80;;;8.98;;
22949;SDS011;11641;51.018;4.474;2022-10-13T08:23:28;15.02;;;8.30;;
22949;SDS011;11641;51.018;4.474;2022-10-13T08:25:54;21.58;;;7.90;;
22949;SDS011;11641;51.018;4.474;2022-10-13T08:28:24;19.13;;;8.07;;
22949;SDS011;11641;51.018;4.474;2022-10-13T08:30:55;18.17;;;7.63;;
22949;SDS011;11641;51.018;4.474;2022-10-13T08:33:22;21.80;;;8.18;;
22949;SDS011;11641;51.018;4.474;2022-10-13T08:35:51;21.63;;;7.35;;
22949;SDS011;11641;51.018;4.474;2022-10-13T08:38:21;19.73;;;7.97;;
22949;SDS011;11641;51.018;4.474;2022-10-13T08:40:47;19.23;;;8.20;;
22949;SDS011;11641;51.018;4.474;2022-10-13T08:43:18;17.27;;;8.30;;
22949;SDS011;11641;51.018;4.474;2022-10-13T08:45:48;17.52;;;7.47;;
22949;SDS011;11641;51.018;4.474;2022-10-13T08:48:17;13.65;;;7.47;;
22949;SDS011;11641;51.018;4.474;2022-10-13T08:50:47;14.63;;;7.15;;
22949;SDS011;11641;51.018;4.474;2022-10-13T08:53:22;14.82;;;7.15;;
22949;SDS011;11641;51.018;4.474;2022-10-13T08:58:28;12.75;;;6.93;;
22949;SDS011;11641;51.018;4.474;2022-10-13T09:01:05;16.67;;;7.20;;
22949;SDS011;11641;51.018;4.474;2022-10-13T09:03:47;13.40;;;7.20;;
22949;SDS011;11641;51.018;4.474;2022-10-13T09:06:23;18.40;;;7.13;;
22949;SDS011;11641;51.018;4.474;2022-10-13T09:11:18;14.07;;;7.20;;
22949;SDS011;11641;51.018;4.474;2022-10-13T09:13:48;17.88;;;7.20;;
22949;SDS011;11641;51.018;4.474;2022-10-13T09:16:30;14.75;;;7.60;;
22949;SDS011;11641;51.018;4.474;2022-10-13T09:19:11;12.15;;;6.78;;
22949;SDS011;11641;51.018;4.474;2022-10-13T09:22:13;16.52;;;7.45;;
22949;SDS011;11641;51.018;4.474;2022-10-13T09:27:50;15.93;;;6.75;;
22949;SDS011;11641;51.018;4.474;2022-10-13T09:30:29;18.77;;;7.63;;
22949;SDS011;11641;51.018;4.474;2022-10-13T09:35:33;13.75;;;7.60;;
22949;SDS011;11641;51.018;4.474;2022-10-13T09:38:09;15.30;;;7.40;;
22949;SDS011;11641;51.018;4.474;2022-10-13T09:40:38;19.90;;;7.47;;
22949;SDS011;11641;51.018;4.474;2022-10-13T09:43:22;17.10;;;7.38;;
22949;SDS011;11641;51.018;4.474;2022-10-13T09:46:00;15.35;;;6.50;;
22949;SDS011;11641;51.018;4.474;2022-10-13T09:48:37;19.80;;;7.68;;
22949;SDS011;11641;51.018;4.474;2022-10-13T09:51:10;18.58;;;7.50;;
22949;SDS011;11641;51.018;4.474;2022-10-13T09:53:57;13.82;;;6.63;;
22949;SDS011;11641;51.018;4.474;2022-10-13T09:59:30;22.65;;;7.35;;
22949;SDS011;11641;51.018;4.474;2022-10-13T10:04:48;11.25;;;6.63;;
22949;SDS011;11641;51.018;4.474;2022-10-13T10:07:17;18.90;;;7.40;;
22949;SDS011;11641;51.018;4.474;2022-10-13T10:09:56;15.73;;;6.95;;
22949;SDS011;11641;51.018;4.474;2022-10-13T10:12:27;13.60;;;7.07;;
22949;SDS011;11641;51.018;4.474;2022-10-13T10:15:01;10.32;;;6.82;;
22949;SDS011;11641;51.018;4.474;2022-10-13T10:17:45;14.45;;;6.82;;
22949;SDS011;11641;51.018;4.474;2022-10-13T10:23:06;14.32;;;7.32;;
22949;SDS011;11641;51.018;4.474;2022-10-13T10:26:01;15.23;;;7.40;;
22949;SDS011;11641;51.018;4.474;2022-10-13T10:46:59;14.18;;;7.53;;
22949;SDS011;11641;51.018;4.474;2022-10-13T10:49:35;18.07;;;7.87;;
22949;SDS011;11641;51.018;4.474;2022-10-13T10:52:07;14.48;;;8.25;;
22949;SDS011;11641;51.018;4.474;2022-10-13T10:54:54;19.77;;;8.82;;
22949;SDS011;11641;51.018;4.474;2022-10-13T10:57:48;18.25;;;9.70;;
22949;SDS011;11641;51.018;4.474;2022-10-13T11:00:33;12.73;;;9.18;;
22949;SDS011;11641;51.018;4.474;2022-10-13T11:03:09;24.02;;;9.10;;
22949;SDS011;11641;51.018;4.474;2022-10-13T11:13:52;18.05;;;9.25;;
22949;SDS011;11641;51.018;4.474;2022-10-13T11:27:17;22.02;;;11.23;;
22949;SDS011;11641;51.018;4.474;2022-10-13T11:30:04;18.45;;;10.43;;
22949;SDS011;11641;51.018;4.474;2022-10-13T11:32:52;20.55;;;11.40;;
22949;SDS011;11641;51.018;4.474;2022-10-13T11:35:24;26.05;;;11.18;;
22949;SDS011;11641;51.018;4.474;2022-10-13T11:40:36;20.30;;;11.40;;
22949;SDS011;11641;51.018;4.474;2022-10-13T11:43:10;18.70;;;11.85;;
22949;SDS011;11641;51.018;4.474;2022-10-13T11:56:46;18.40;;;11.68;;
22949;SDS011;11641;51.018;4.474;2022-10-13T11:59:27;22.48;;;11.05;;
22949;SDS011;11641;51.018;4.474;2022-10-13T12:01:56;21.38;;;11.73;;
22949;SDS011;11641;51.018;4.474;2022-10-13T12:04:30;21.75;;;11.90;;
22949;SDS011;11641;51.018;4.474;2022-10-13T12:07:02;18.90;;;12.32;;
22949;SDS011;11641;51.018;4.474;2022-10-13T12:09:31;19.85;;;11.50;;
22949;SDS011;11641;51.018;4.474;2022-10-13T12:14:37;19.20;;;12.15;;
22949;SDS011;11641;51.018;4.474;2022-10-13T12:17:17;15.50;;;10.90;;
22949;SDS011;11641;51.018;4.474;2022-10-13T12:19:43;17.13;;;11.13;;
22949;SDS011;11641;51.018;4.474;2022-10-13T12:22:12;23.30;;;12.38;;
22949;SDS011;11641;51.018;4.474;2022-10-13T12:24:39;21.05;;;11.77;;
22949;SDS011;11641;51.018;4.474;2022-10-13T12:27:14;21.45;;;11.85;;
22949;SDS011;11641;51.018;4.474;2022-10-13T12:29:46;18.88;;;12.15;;
22949;SDS011;11641;51.018;4.474;2022-10-13T12:34:44;22.08;;;11.48;;
22949;SDS011;11641;51.018;4.474;2022-10-13T12:37:12;23.00;;;11.77;;
22949;SDS011;11641;51.018;4.474;2022-10-13T12:39:45;16.40;;;10.73;;
22949;SDS011;11641;51.018;4.474;2022-10-13T12:42:12;24.70;;;12.63;;
22949;SDS011;11641;51.018;4.474;2022-10-13T12:44:39;19.85;;;12.60;;
22949;SDS011;11641;51.018;4.474;2022-10-13T12:47:05;23.02;;;12.60;;
22949;SDS011;11641;51.018;4.474;2022-10-13T12:52:50;22.50;;;11.95;;
22949;SDS011;11641;51.018;4.474;2022-10-13T12:55:18;19.50;;;12.43;;
22949;SDS011;11641;51.018;4.474;2022-10-13T12:57:46;19.83;;;11.98;;
22949;SDS011;11641;51.018;4.474;2022-10-13T13:00:19;23.13;;;12.82;;
22949;SDS011;11641;51.018;4.474;2022-10-13T13:02:51;17.73;;;11.98;;
22949;SDS011;11641;51.018;4.474;2022-10-13T13:08:02;22.88;;;13.50;;
22949;SDS011;11641;51.018;4.474;2022-10-13T13:10:32;24.83;;;13.70;;
22949;SDS011;11641;51.018;4.474;2022-10-13T13:13:13;25.17;;;14.27;;
22949;SDS011;11641;51.018;4.474;2022-10-13T13:15:46;26.33;;;13.50;;
22949;SDS011;11641;51.018;4.474;2022-10-13T13:20:47;18.80;;;11.85;;
22949;SDS011;11641;51.018;4.474;2022-10-13T13:23:12;20.50;;;12.85;;
22949;SDS011;11641;51.018;4.474;2022-10-13T13:25:43;17.73;;;11.85;;
22949;SDS011;11641;51.018;4.474;2022-10-13T13:28:12;22.75;;;12.23;;
22949;SDS011;11641;51.018;4.474;2022-10-13T13:30:39;19.75;;;12.55;;
22949;SDS011;11641;51.018;4.474;2022-10-13T13:33:06;17.00;;;11.48;;
22949;SDS011;11641;51.018;4.474;2022-10-13T13:35:32;19.63;;;12.10;;
22949;SDS011;11641;51.018;4.474;2022-10-13T13:37:59;23.85;;;11.52;;
22949;SDS011;11641;51.018;4.474;2022-10-13T13:40:27;21.10;;;11.10;;
22949;SDS011;11641;51.018;4.474;2022-10-13T13:42:53;18.15;;;10.95;;
22949;SDS011;11641;51.018;4.474;2022-10-13T13:45:24;18.88;;;10.88;;
22949;SDS011;11641;51.018;4.474;2022-10-13T13:47:52;16.48;;;10.48;;
22949;SDS011;11641;51.018;4.474;2022-10-13T13:50:19;16.08;;;10.73;;
22949;SDS011;11641;51.018;4.474;2022-10-13T13:52:50;13.32;;;9.40;;
22949;SDS011;11641;51.018;4.474;2022-10-13T13:55:18;15.45;;;9.75;;
22949;SDS011;11641;51.018;4.474;2022-10-13T13:57:44;14.32;;;10.63;;
22949;SDS011;11641;51.018;4.474;2022-10-13T14:00:13;15.77;;;9.15;;
22949;SDS011;11641;51.018;4.474;2022-10-13T14:02:40;18.52;;;10.20;;
22949;SDS011;11641;51.018;4.474;2022-10-13T14:05:07;16.38;;;10.52;;
22949;SDS011;11641;51.018;4.474;2022-10-13T14:07:34;19.98;;;10.63;;
22949;SDS011;11641;51.018;4.474;2022-10-13T14:10:02;22.52;;;11.80;;
22949;SDS011;11641;51.018;4.474;2022-10-13T14:12:29;19.23;;;10.90;;
22949;SDS011;11641;51.018;4.474;2022-10-13T14:14:58;18.23;;;10.10;;
22949;SDS011;11641;51.018;4.474;2022-10-13T14:17:24;15.38;;;9.10;;
22949;SDS011;11641;51.018;4.474;2022-10-13T14:19:53;16.33;;;9.05;;
22949;SDS011;11641;51.018;4.474;2022-10-13T14:22:19;12.95;;;8.52;;
22949;SDS011;11641;51.018;4.474;2022-10-13T14:24:47;17.60;;;8.55;;
22949;SDS011;11641;51.018;4.474;2022-10-13T14:27:15;11.25;;;8.10;;
22949;SDS011;11641;51.018;4.474;2022-10-13T14:29:41;13.52;;;8.52;;
22949;SDS011;11641;51.018;4.474;2022-10-13T14:32:09;13.80;;;8.85;;
22949;SDS011;11641;51.018;4.474;2022-10-13T14:34:35;14.77;;;8.63;;
22949;SDS011;11641;51.018;4.474;2022-10-13T14:37:01;16.92;;;9.57;;
22949;SDS011;11641;51.018;4.474;2022-10-13T14:39:27;17.02;;;9.60;;
22949;SDS011;11641;51.018;4.474;2022-10-13T14:41:52;14.70;;;9.80;;
22949;SDS011;11641;51.018;4.474;2022-10-13T14:44:21;17.88;;;10.63;;
22949;SDS011;11641;51.018;4.474;2022-10-13T14:46:47;17.90;;;11.02;;
22949;SDS011;11641;51.018;4.474;2022-10-13T14:49:13;18.98;;;12.10;;
22949;SDS011;11641;51.018;4.474;2022-10-13T14:51:38;21.80;;;11.82;;
22949;SDS011;11641;51.018;4.474;2022-10-13T14:54:06;17.08;;;12.02;;
22949;SDS011;11641;51.018;4.474;2022-10-13T14:56:33;22.42;;;12.35;;
22949;SDS011;11641;51.018;4.474;2022-10-13T14:59:04;20.08;;;14.50;;
22949;SDS011;11641;51.018;4.474;2022-10-13T15:01:33;20.90;;;13.68;;
22949;SDS011;11641;51.018;4.474;2022-10-13T15:04:02;24.45;;;15.38;;
22949;SDS011;11641;51.018;4.474;2022-10-13T15:06:30;27.52;;;15.45;;
22949;SDS011;11641;51.018;4.474;2022-10-13T15:08:57;24.42;;;14.93;;
22949;SDS011;11641;51.018;4.474;2022-10-13T15:11:23;26.42;;;14.10;;
22949;SDS011;11641;51.018;4.474;2022-10-13T15:13:50;27.45;;;16.33;;
22949;SDS011;11641;51.018;4.474;2022-10-13T15:16:20;28.27;;;15.68;;
22949;SDS011;11641;51.018;4.474;2022-10-13T15:18:48;27.15;;;15.80;;
22949;SDS011;11641;51.018;4.474;2022-10-13T15:21:16;27.60;;;17.05;;
22949;SDS011;11641;51.018;4.474;2022-10-13T15:23:42;30.40;;;16.98;;
22949;SDS011;11641;51.018;4.474;2022-10-13T15:26:11;26.95;;;16.05;;
22949;SDS011;11641;51.018;4.474;2022-10-13T15:28:41;29.15;;;18.38;;
22949;SDS011;11641;51.018;4.474;2022-10-13T15:31:09;33.17;;;19.88;;
22949;SDS011;11641;51.018;4.474;2022-10-13T15:33:36;31.73;;;18.92;;
22949;SDS011;11641;51.018;4.474;2022-10-13T15:36:06;27.77;;;19.88;;
22949;SDS011;11641;51.018;4.474;2022-10-13T15:38:31;29.30;;;17.77;;
22949;SDS011;11641;51.018;4.474;2022-10-13T15:41:01;30.58;;;18.65;;
22949;SDS011;11641;51.018;4.474;2022-10-13T15:43:28;37.25;;;20.05;;
22949;SDS011;11641;51.018;4.474;2022-10-13T15:45:58;27.60;;;18.58;;
22949;SDS011;11641;51.018;4.474;2022-10-13T15:48:26;35.22;;;23.27;;
22949;SDS011;11641;51.018;4.474;2022-10-13T15:50:57;30.10;;;18.77;;
22949;SDS011;11641;51.018;4.474;2022-10-13T15:53:26;25.83;;;16.42;;
22949;SDS011;11641;51.018;4.474;2022-10-13T15:55:56;23.75;;;14.98;;
22949;SDS011;11641;51.018;4.474;2022-10-13T15:58:27;18.23;;;13.25;;
22949;SDS011;11641;51.018;4.474;2022-10-13T16:00:52;19.45;;;13.10;;
22949;SDS011;11641;51.018;4.474;2022-10-13T16:03:18;20.75;;;13.43;;
22949;SDS011;11641;51.018;4.474;2022-10-13T16:05:45;19.02;;;11.80;;
22949;SDS011;11641;51.018;4.474;2022-10-13T16:08:13;18.60;;;12.43;;
22949;SDS011;11641;51.018;4.474;2022-10-13T16:10:39;17.15;;;12.05;;
22949;SDS011;11641;51.018;4.474;2022-10-13T16:13:06;16.60;;;12.27;;
22949;SDS011;11641;51.018;4.474;2022-10-13T16:15:33;18.70;;;12.32;;
22949;SDS011;11641;51.018;4.474;2022-10-13T16:18:02;17.90;;;12.55;;
22949;SDS011;11641;51.018;4.474;2022-10-13T16:20:28;15.13;;;11.57;;
22949;SDS011;11641;51.018;4.474;2022-10-13T16:22:58;19.45;;;12.65;;
22949;SDS011;11641;51.018;4.474;2022-10-13T16:25:27;17.23;;;11.68;;
22949;SDS011;11641;51.018;4.474;2022-10-13T16:27:54;15.52;;;11.70;;
22949;SDS011;11641;51.018;4.474;2022-10-13T16:30:20;20.20;;;11.15;;
22949;SDS011;11641;51.018;4.474;2022-10-13T16:32:48;20.20;;;11.45;;
22949;SDS011;11641;51.018;4.474;2022-10-13T16:35:16;23.35;;;12.27;;
22949;SDS011;11641;51.018;4.474;2022-10-13T16:37:42;18.65;;;12.23;;